Time;durP1;ratioP1;P1;durP2;ratioP2;P2;SDS_P1;SDS_P2;PMS_P1;PMS_P2;Temp;Humidity;BMP_temperature;BMP_pressure;BME280_temperature;BME280_humidity;BME280_pressure;Samples;Min_cycle;Max_cycle;Signal;HPM_P1;HPM_P2
2021/06/22 00:01:51;;;;;;;25.88;8.18;;;;;;;;;;5390009;26;19995;-77
2021/06/22 00:04:18;;;;;;;31.52;7.43;;;;;;;;;;5392810;26;20011;-77
2021/06/22 00:06:44;;;;;;;37.92;7.93;;;;;;;;;;5390557;26;20011;-78
2021/06/22 00:09:10;;;;;;;32.03;7.03;;;;;;;;;;5390425;26;20108;-77
2021/06/22 00:11:36;;;;;;;33.80;7.05;;;;;;;;;;5390974;26;20015;-77
2021/06/22 00:14:02;;;;;;;25.70;7.85;;;;;;;;;;5370401;26;20007;-78
2021/06/22 00:16:28;;;;;;;34.45;6.97;;;;;;;;;;5389725;26;20017;-77
2021/06/22 00:18:55;;;;;;;29.52;6.18;;;;;;;;;;5390510;26;20004;-77
2021/06/22 00:21:21;;;;;;;33.97;8.10;;;;;;;;;;5390913;26;20019;-78
2021/06/22 00:23:47;;;;;;;37.25;7.45;;;;;;;;;;5390417;26;20003;-77
2021/06/22 00:26:13;;;;;;;33.45;7.45;;;;;;;;;;5390358;26;20000;-77
2021/06/22 00:28:39;;;;;;;29.40;7.87;;;;;;;;;;5391668;26;20144;-77
2021/06/22 00:31:05;;;;;;;37.63;7.18;;;;;;;;;;5390372;26;20004;-78
2021/06/22 00:33:32;;;;;;;39.13;7.93;;;;;;;;;;5392715;26;20327;-78
2021/06/22 00:35:58;;;;;;;38.00;7.10;;;;;;;;;;5390920;26;20003;-77
2021/06/22 00:38:24;;;;;;;34.63;7.00;;;;;;;;;;5391479;26;20003;-77
2021/06/22 00:40:50;;;;;;;39.25;7.40;;;;;;;;;;5390814;26;20035;-78
2021/06/22 00:43:16;;;;;;;29.55;6.07;;;;;;;;;;5390497;26;20006;-78
2021/06/22 00:45:44;;;;;;;34.47;7.25;;;;;;;;;;5393222;26;20284;-77
2021/06/22 00:48:10;;;;;;;40.50;7.30;;;;;;;;;;5391437;26;20031;-77
2021/06/22 00:50:36;;;;;;;39.00;8.15;;;;;;;;;;5391232;26;20004;-78
2021/06/22 00:53:03;;;;;;;30.90;6.62;;;;;;;;;;5390946;26;20015;-77
2021/06/22 00:55:30;;;;;;;36.33;6.28;;;;;;;;;;5391898;26;20034;-78
2021/06/22 00:58:00;;;;;;;31.35;6.45;;;;;;;;;;5392129;26;20022;-77
2021/06/22 01:00:26;;;;;;;32.30;5.57;;;;;;;;;;5391443;26;20035;-77
2021/06/22 01:02:54;;;;;;;30.50;6.75;;;;;;;;;;5392885;26;20012;-77
2021/06/22 01:05:20;;;;;;;38.75;7.80;;;;;;;;;;5392692;26;20417;-78
2021/06/22 01:07:47;;;;;;;40.00;7.82;;;;;;;;;;5392765;26;20393;-77
2021/06/22 01:10:13;;;;;;;49.92;8.60;;;;;;;;;;5390066;26;19995;-78
2021/06/22 01:12:39;;;;;;;27.30;6.85;;;;;;;;;;5390493;26;19999;-77
2021/06/22 01:15:16;;;;;;;37.17;7.43;;;;;;;;;;5392669;26;20055;-77
2021/06/22 01:17:42;;;;;;;31.95;8.00;;;;;;;;;;5390838;26;20379;-77
2021/06/22 01:20:09;;;;;;;29.02;7.03;;;;;;;;;;5369619;26;20004;-78
2021/06/22 01:22:35;;;;;;;36.97;8.23;;;;;;;;;;5391054;26;20012;-78
2021/06/22 01:25:02;;;;;;;33.42;7.57;;;;;;;;;;5390964;26;20038;-77
2021/06/22 01:27:28;;;;;;;38.53;8.20;;;;;;;;;;5392006;26;20011;-78
2021/06/22 01:29:54;;;;;;;33.05;7.30;;;;;;;;;;5372330;26;20003;-77
2021/06/22 01:32:20;;;;;;;38.95;7.80;;;;;;;;;;5388976;26;20067;-78
2021/06/22 01:34:47;;;;;;;32.72;8.02;;;;;;;;;;5371546;26;20322;-78
2021/06/22 01:37:13;;;;;;;31.42;6.72;;;;;;;;;;5392338;26;20016;-77
2021/06/22 01:39:40;;;;;;;28.58;6.68;;;;;;;;;;5388878;26;20028;-77
2021/06/22 01:42:06;;;;;;;26.10;7.12;;;;;;;;;;5371856;26;20007;-78
2021/06/22 01:44:33;;;;;;;32.97;7.72;;;;;;;;;;5390338;26;20053;-77
2021/06/22 01:46:59;;;;;;;39.45;8.40;;;;;;;;;;5392709;26;20367;-77
2021/06/22 01:49:25;;;;;;;27.77;6.90;;;;;;;;;;5391056;26;20047;-78
2021/06/22 01:51:52;;;;;;;33.78;6.15;;;;;;;;;;5392960;26;19995;-78
2021/06/22 01:54:18;;;;;;;27.67;7.47;;;;;;;;;;5390203;26;20003;-77
2021/06/22 01:56:52;;;;;;;30.37;7.20;;;;;;;;;;5391097;26;20015;-77
2021/06/22 01:59:18;;;;;;;31.48;7.40;;;;;;;;;;5390169;26;19996;-77
2021/06/22 02:01:44;;;;;;;25.37;6.18;;;;;;;;;;5392754;26;20015;-78
2021/06/22 02:04:11;;;;;;;32.75;7.12;;;;;;;;;;5394122;26;20035;-77
2021/06/22 02:06:37;;;;;;;24.20;7.15;;;;;;;;;;5391463;26;20027;-77
2021/06/22 02:09:04;;;;;;;32.95;6.90;;;;;;;;;;5391682;26;19992;-77
2021/06/22 02:11:30;;;;;;;31.65;8.32;;;;;;;;;;5390374;26;20046;-77
2021/06/22 02:13:56;;;;;;;31.37;7.07;;;;;;;;;;5392739;26;20010;-77
2021/06/22 02:16:22;;;;;;;33.72;8.32;;;;;;;;;;5370984;26;20015;-77
2021/06/22 02:18:49;;;;;;;31.58;6.82;;;;;;;;;;5391371;26;20015;-77
2021/06/22 02:21:15;;;;;;;43.63;7.68;;;;;;;;;;5391320;26;19983;-78
2021/06/22 02:23:41;;;;;;;39.65;8.27;;;;;;;;;;5372867;26;20040;-77
2021/06/22 02:26:08;;;;;;;34.20;6.68;;;;;;;;;;5392137;26;20047;-77
2021/06/22 02:28:34;;;;;;;32.47;7.87;;;;;;;;;;5391477;26;19993;-77
2021/06/22 02:31:00;;;;;;;36.33;7.20;;;;;;;;;;5393134;26;20057;-77
2021/06/22 02:33:27;;;;;;;27.70;5.60;;;;;;;;;;5391636;26;20011;-78
2021/06/22 02:35:53;;;;;;;29.42;6.93;;;;;;;;;;5371425;26;20015;-77
2021/06/22 02:38:20;;;;;;;27.37;6.35;;;;;;;;;;5392670;26;20015;-77
2021/06/22 02:40:46;;;;;;;25.60;6.95;;;;;;;;;;5390564;26;20012;-77
2021/06/22 02:43:14;;;;;;;38.00;7.07;;;;;;;;;;5391067;26;20381;-77
2021/06/22 02:45:40;;;;;;;29.12;6.35;;;;;;;;;;5392169;26;20031;-77
2021/06/22 02:48:09;;;;;;;32.67;7.60;;;;;;;;;;5391350;26;19999;-77
2021/06/22 02:50:36;;;;;;;29.55;7.60;;;;;;;;;;5393659;26;20015;-78
2021/06/22 02:53:02;;;;;;;28.95;6.37;;;;;;;;;;5390979;26;20003;-77
2021/06/22 02:55:28;;;;;;;24.70;6.85;;;;;;;;;;5370229;26;20012;-77
2021/06/22 02:57:56;;;;;;;23.08;5.82;;;;;;;;;;5373211;26;19996;-77
2021/06/22 03:00:31;;;;;;;33.08;7.37;;;;;;;;;;5373078;26;20578;-77
2021/06/22 03:03:01;;;;;;;25.12;6.25;;;;;;;;;;5391075;26;20032;-77
2021/06/22 03:05:28;;;;;;;25.73;5.90;;;;;;;;;;5393685;26;20303;-77
2021/06/22 03:07:54;;;;;;;25.77;5.97;;;;;;;;;;5391414;26;20406;-77
2021/06/22 03:10:21;;;;;;;23.02;6.30;;;;;;;;;;5391258;26;20053;-77
2021/06/22 03:12:47;;;;;;;24.65;6.30;;;;;;;;;;5391531;26;20047;-78
2021/06/22 03:15:14;;;;;;;31.73;6.22;;;;;;;;;;5391252;26;20018;-77
2021/06/22 03:17:40;;;;;;;28.75;6.22;;;;;;;;;;5392043;26;20709;-77
2021/06/22 03:20:08;;;;;;;32.65;6.70;;;;;;;;;;5392803;26;20360;-77
2021/06/22 03:22:34;;;;;;;27.15;6.80;;;;;;;;;;5389549;26;19999;-77
2021/06/22 03:25:00;;;;;;;29.12;6.47;;;;;;;;;;5391688;26;20069;-77
2021/06/22 03:27:26;;;;;;;31.40;6.10;;;;;;;;;;5393529;26;20019;-78
2021/06/22 03:29:52;;;;;;;20.62;6.15;;;;;;;;;;5390438;26;20067;-77
2021/06/22 03:32:20;;;;;;;28.12;6.95;;;;;;;;;;5391295;26;20397;-77
2021/06/22 03:34:46;;;;;;;25.37;6.30;;;;;;;;;;5392105;26;20029;-77
2021/06/22 03:37:13;;;;;;;22.15;6.37;;;;;;;;;;5391180;26;20052;-77
2021/06/22 03:39:39;;;;;;;33.28;6.82;;;;;;;;;;5371509;26;20330;-78
2021/06/22 03:42:08;;;;;;;29.92;6.20;;;;;;;;;;5393706;26;20411;-77
2021/06/22 03:44:34;;;;;;;38.70;7.60;;;;;;;;;;5393086;26;20014;-77
2021/06/22 03:47:01;;;;;;;28.20;7.37;;;;;;;;;;5390889;26;20012;-78
2021/06/22 03:49:27;;;;;;;39.08;7.40;;;;;;;;;;5391839;26;20029;-77
2021/06/22 03:51:54;;;;;;;27.20;6.12;;;;;;;;;;5393399;26;20007;-78
2021/06/22 03:54:20;;;;;;;27.37;6.43;;;;;;;;;;5393105;26;20068;-78
2021/06/22 03:56:46;;;;;;;30.65;7.45;;;;;;;;;;5391101;26;20026;-77
2021/06/22 03:59:13;;;;;;;38.90;7.70;;;;;;;;;;5393028;26;20015;-77
2021/06/22 04:01:39;;;;;;;33.72;6.70;;;;;;;;;;5392074;26;20035;-77
2021/06/22 04:04:05;;;;;;;41.58;7.55;;;;;;;;;;5391291;26;20033;-79
2021/06/22 04:06:31;;;;;;;32.42;7.07;;;;;;;;;;5369866;26;20012;-77
2021/06/22 04:08:57;;;;;;;29.90;7.07;;;;;;;;;;5391591;26;20023;-78
2021/06/22 04:11:24;;;;;;;33.47;6.93;;;;;;;;;;5390708;26;20454;-78
2021/06/22 04:13:50;;;;;;;23.38;6.25;;;;;;;;;;5371042;26;20066;-77
2021/06/22 04:16:16;;;;;;;33.58;6.20;;;;;;;;;;5390998;26;20331;-77
2021/06/22 04:18:42;;;;;;;29.83;7.15;;;;;;;;;;5390679;26;20015;-77
2021/06/22 04:21:09;;;;;;;35.83;6.53;;;;;;;;;;5390504;26;20017;-77
2021/06/22 04:23:35;;;;;;;27.42;7.18;;;;;;;;;;5389438;26;20031;-78
2021/06/22 04:26:01;;;;;;;39.47;7.30;;;;;;;;;;5369786;26;19999;-77
2021/06/22 04:28:27;;;;;;;31.30;6.95;;;;;;;;;;5372370;26;19999;-78
2021/06/22 04:30:54;;;;;;;30.88;6.87;;;;;;;;;;5390625;26;19999;-77
2021/06/22 04:33:20;;;;;;;31.08;6.30;;;;;;;;;;5392944;26;19996;-77
2021/06/22 04:35:46;;;;;;;28.48;6.95;;;;;;;;;;5391093;26;20035;-77
2021/06/22 04:38:12;;;;;;;30.27;6.97;;;;;;;;;;5389312;26;20015;-77
2021/06/22 04:40:39;;;;;;;36.42;8.18;;;;;;;;;;5392964;26;20004;-78
2021/06/22 04:43:05;;;;;;;28.70;6.37;;;;;;;;;;5372075;26;20425;-78
2021/06/22 04:45:32;;;;;;;27.02;5.32;;;;;;;;;;5389136;26;20022;-77
2021/06/22 04:47:58;;;;;;;25.25;6.65;;;;;;;;;;5392934;26;20004;-76
2021/06/22 04:50:25;;;;;;;17.67;5.25;;;;;;;;;;5371906;26;20318;-73
2021/06/22 04:52:51;;;;;;;19.40;5.37;;;;;;;;;;5391179;26;20208;-74
2021/06/22 04:55:22;;;;;;;21.62;6.12;;;;;;;;;;5390746;26;19995;-74
2021/06/22 04:57:49;;;;;;;20.00;5.90;;;;;;;;;;5392468;26;20024;-73
2021/06/22 05:00:16;;;;;;;18.45;5.68;;;;;;;;;;5392216;26;20095;-75
2021/06/22 05:02:42;;;;;;;19.00;4.87;;;;;;;;;;5388990;26;19999;-73
2021/06/22 05:05:09;;;;;;;30.20;6.72;;;;;;;;;;5391087;26;19995;-73
2021/06/22 05:07:37;;;;;;;21.75;5.95;;;;;;;;;;5392204;26;20307;-77
2021/06/22 05:10:03;;;;;;;27.98;6.57;;;;;;;;;;5389159;26;20015;-77
2021/06/22 05:12:30;;;;;;;24.40;6.35;;;;;;;;;;5390928;26;20032;-77
2021/06/22 05:14:56;;;;;;;22.33;5.72;;;;;;;;;;5390102;26;20051;-77
2021/06/22 05:17:22;;;;;;;31.80;6.80;;;;;;;;;;5390244;26;20014;-77
2021/06/22 05:19:48;;;;;;;20.25;6.22;;;;;;;;;;5372266;26;19992;-77
2021/06/22 05:22:15;;;;;;;22.20;6.28;;;;;;;;;;5390508;26;20147;-77
2021/06/22 05:24:41;;;;;;;25.45;6.62;;;;;;;;;;5368871;26;20027;-77
2021/06/22 05:27:07;;;;;;;20.65;6.12;;;;;;;;;;5392388;26;20007;-77
2021/06/22 05:29:34;;;;;;;24.52;6.70;;;;;;;;;;5372341;26;20011;-77
2021/06/22 05:32:00;;;;;;;28.50;6.55;;;;;;;;;;5392658;26;20009;-77
2021/06/22 05:34:26;;;;;;;20.60;5.50;;;;;;;;;;5391469;26;20014;-77
2021/06/22 05:36:52;;;;;;;20.75;5.75;;;;;;;;;;5383177;26;20471;-77
2021/06/22 05:39:18;;;;;;;15.00;5.57;;;;;;;;;;5383569;26;20093;-77
2021/06/22 05:41:45;;;;;;;26.73;6.40;;;;;;;;;;5381615;26;20376;-77
2021/06/22 05:44:12;;;;;;;27.40;6.53;;;;;;;;;;5382956;26;20073;-77
2021/06/22 05:46:38;;;;;;;16.17;5.78;;;;;;;;;;5382521;26;20000;-77
2021/06/22 05:49:04;;;;;;;18.75;5.37;;;;;;;;;;5383605;26;20011;-77
2021/06/22 05:51:30;;;;;;;19.08;5.12;;;;;;;;;;5360967;26;20031;-78
2021/06/22 05:53:57;;;;;;;22.62;4.80;;;;;;;;;;5383926;26;20016;-77
2021/06/22 05:56:23;;;;;;;22.55;5.95;;;;;;;;;;5383497;26;20000;-77
2021/06/22 05:58:49;;;;;;;22.83;5.87;;;;;;;;;;5382109;26;20039;-77
2021/06/22 06:01:15;;;;;;;28.50;6.70;;;;;;;;;;5381083;26;20092;-77
2021/06/22 06:03:41;;;;;;;25.67;6.68;;;;;;;;;;5359837;26;20004;-77
2021/06/22 06:06:07;;;;;;;20.55;5.85;;;;;;;;;;5381597;26;20015;-77
2021/06/22 06:08:34;;;;;;;23.45;6.45;;;;;;;;;;5363221;26;20015;-77
2021/06/22 06:11:01;;;;;;;32.20;6.57;;;;;;;;;;5379480;26;20011;-77
2021/06/22 06:13:35;;;;;;;17.45;5.65;;;;;;;;;;5383016;26;20713;-77
2021/06/22 06:16:01;;;;;;;24.35;6.05;;;;;;;;;;5380820;26;20007;-76
2021/06/22 06:18:27;;;;;;;20.00;6.15;;;;;;;;;;5383587;26;20011;-76
2021/06/22 06:20:55;;;;;;;37.55;6.22;;;;;;;;;;5362169;26;20074;-76
2021/06/22 06:23:23;;;;;;;38.88;6.35;;;;;;;;;;5379504;26;20105;-76
2021/06/22 06:25:49;;;;;;;21.40;6.00;;;;;;;;;;5381166;26;20392;-76
2021/06/22 06:28:18;;;;;;;22.73;5.97;;;;;;;;;;5381149;26;20032;-76
2021/06/22 06:30:44;;;;;;;21.50;5.32;;;;;;;;;;5360545;26;20726;-76
2021/06/22 06:33:13;;;;;;;23.00;5.93;;;;;;;;;;5361774;26;20039;-76
2021/06/22 06:35:39;;;;;;;18.62;5.28;;;;;;;;;;5382827;26;20028;-76
2021/06/22 06:38:05;;;;;;;32.10;6.45;;;;;;;;;;5381843;26;20012;-76
2021/06/22 06:40:32;;;;;;;24.40;5.57;;;;;;;;;;5383271;26;20390;-76
2021/06/22 06:42:58;;;;;;;21.50;4.95;;;;;;;;;;5381683;26;20395;-76
2021/06/22 06:45:24;;;;;;;19.17;4.87;;;;;;;;;;5381861;26;20015;-75
2021/06/22 06:47:51;;;;;;;20.02;6.00;;;;;;;;;;5359987;26;20359;-75
2021/06/22 06:50:17;;;;;;;30.50;6.87;;;;;;;;;;5381206;26;20000;-75
2021/06/22 06:52:43;;;;;;;24.17;5.75;;;;;;;;;;5380737;26;20012;-76
2021/06/22 06:55:28;;;;;;;20.67;6.07;;;;;;;;;;5381757;26;20355;-75
2021/06/22 06:57:54;;;;;;;29.25;6.10;;;;;;;;;;5380786;26;20057;-75
2021/06/22 07:00:21;;;;;;;22.55;6.53;;;;;;;;;;5380983;26;20031;-75
2021/06/22 07:02:48;;;;;;;26.90;6.87;;;;;;;;;;5380934;26;20408;-76
2021/06/22 07:05:14;;;;;;;19.98;5.28;;;;;;;;;;5378881;26;20071;-76
2021/06/22 07:07:40;;;;;;;22.40;5.62;;;;;;;;;;5382681;26;20379;-75
2021/06/22 07:10:07;;;;;;;22.02;5.78;;;;;;;;;;5381870;26;20043;-75
2021/06/22 07:12:33;;;;;;;33.42;6.35;;;;;;;;;;5359753;26;20012;-75
2021/06/22 07:14:59;;;;;;;26.62;6.37;;;;;;;;;;5381934;26;20030;-75
2021/06/22 07:17:25;;;;;;;23.65;6.05;;;;;;;;;;5383233;26;20497;-76
2021/06/22 07:19:51;;;;;;;25.45;5.78;;;;;;;;;;5383394;26;20020;-76
2021/06/22 07:22:17;;;;;;;22.35;5.78;;;;;;;;;;5380572;26;19999;-76
2021/06/22 07:24:43;;;;;;;25.42;6.47;;;;;;;;;;5380922;26;20028;-77
2021/06/22 07:27:10;;;;;;;20.90;5.85;;;;;;;;;;5359115;26;20011;-76
2021/06/22 07:29:36;;;;;;;20.65;5.20;;;;;;;;;;5382044;26;20004;-76
2021/06/22 07:32:02;;;;;;;24.90;5.87;;;;;;;;;;5382826;26;20004;-77
2021/06/22 07:34:28;;;;;;;22.00;4.97;;;;;;;;;;5382723;26;20018;-76
2021/06/22 07:36:54;;;;;;;18.60;5.65;;;;;;;;;;5379957;26;20059;-76
2021/06/22 07:39:20;;;;;;;22.13;6.32;;;;;;;;;;5380738;26;20611;-76
2021/06/22 07:41:46;;;;;;;20.40;6.20;;;;;;;;;;5362607;26;20407;-76
2021/06/22 07:44:13;;;;;;;23.20;6.00;;;;;;;;;;5380588;26;20385;-76
2021/06/22 07:46:39;;;;;;;23.98;5.53;;;;;;;;;;5380301;26;20367;-76
2021/06/22 07:49:05;;;;;;;17.37;6.35;;;;;;;;;;5381405;26;20325;-76
2021/06/22 07:51:31;;;;;;;30.77;6.57;;;;;;;;;;5383296;26;20072;-76
2021/06/22 07:53:58;;;;;;;28.95;6.37;;;;;;;;;;5382657;26;20011;-77
2021/06/22 07:56:25;;;;;;;21.60;6.07;;;;;;;;;;5380051;26;20026;-77
2021/06/22 07:58:51;;;;;;;21.37;5.55;;;;;;;;;;5380953;26;20046;-76
2021/06/22 08:01:17;;;;;;;26.67;6.12;;;;;;;;;;5382781;26;20011;-76
2021/06/22 08:03:44;;;;;;;24.80;6.95;;;;;;;;;;5380557;26;20012;-76
2021/06/22 08:06:11;;;;;;;28.70;6.37;;;;;;;;;;5382637;26;19996;-76
2021/06/22 08:08:37;;;;;;;27.85;6.85;;;;;;;;;;5382974;26;20018;-76
2021/06/22 08:11:03;;;;;;;25.27;5.57;;;;;;;;;;5379443;26;20012;-77
2021/06/22 08:13:30;;;;;;;23.62;5.47;;;;;;;;;;5381044;26;20034;-77
2021/06/22 08:15:57;;;;;;;23.50;5.75;;;;;;;;;;5379919;26;20271;-77
2021/06/22 08:18:23;;;;;;;22.80;5.55;;;;;;;;;;5380026;26;20027;-79
2021/06/22 08:20:50;;;;;;;30.35;6.65;;;;;;;;;;5380276;26;20004;-77
2021/06/22 08:23:17;;;;;;;27.30;6.55;;;;;;;;;;5382543;26;20000;-76
2021/06/22 08:25:43;;;;;;;25.20;6.15;;;;;;;;;;5378648;26;20030;-77
2021/06/22 08:28:09;;;;;;;19.67;5.68;;;;;;;;;;5382548;26;20004;-77
2021/06/22 08:30:36;;;;;;;28.83;6.35;;;;;;;;;;5381404;26;20421;-76
2021/06/22 08:33:03;;;;;;;29.73;6.30;;;;;;;;;;5359300;26;20004;-77
2021/06/22 08:35:31;;;;;;;22.67;5.72;;;;;;;;;;5382037;26;20438;-76
2021/06/22 08:37:58;;;;;;;28.50;7.28;;;;;;;;;;5380156;26;20034;-76
2021/06/22 08:40:24;;;;;;;21.67;6.20;;;;;;;;;;5379771;26;20012;-76
2021/06/22 08:42:51;;;;;;;17.85;4.87;;;;;;;;;;5382424;26;20007;-77
2021/06/22 08:45:17;;;;;;;23.60;6.18;;;;;;;;;;5382271;26;20038;-77
2021/06/22 08:47:44;;;;;;;18.85;5.62;;;;;;;;;;5382173;26;20003;-77
2021/06/22 08:50:12;;;;;;;23.40;5.68;;;;;;;;;;5381073;26;20402;-77
2021/06/22 08:52:38;;;;;;;20.30;5.95;;;;;;;;;;5378746;26;20004;-76
2021/06/22 08:55:06;;;;;;;22.85;5.05;;;;;;;;;;5380735;26;20008;-76
2021/06/22 08:57:33;;;;;;;38.53;7.50;;;;;;;;;;5381790;26;20022;-76
2021/06/22 08:59:59;;;;;;;17.52;5.65;;;;;;;;;;5379081;26;20011;-77
2021/06/22 09:02:27;;;;;;;26.98;6.70;;;;;;;;;;5382403;26;20014;-77
2021/06/22 09:04:53;;;;;;;24.45;6.25;;;;;;;;;;5382313;26;20011;-77
2021/06/22 09:07:43;;;;;;;26.95;7.12;;;;;;;;;;5380319;26;20009;-77
2021/06/22 09:10:09;;;;;;;22.92;5.93;;;;;;;;;;5365358;26;20434;-76
2021/06/22 09:12:36;;;;;;;23.15;6.05;;;;;;;;;;5380065;26;20094;-76
2021/06/22 09:15:15;;;;;;;19.35;6.78;;;;;;;;;;5381627;26;20140;-80
2021/06/22 09:17:42;;;;;;;31.25;5.95;;;;;;;;;;5379958;26;20406;-79
2021/06/22 09:20:09;;;;;;;21.00;7.35;;;;;;;;;;5381606;26;20027;-77
2021/06/22 09:22:35;;;;;;;23.98;6.00;;;;;;;;;;5380557;26;20378;-78
2021/06/22 09:25:02;;;;;;;39.75;8.10;;;;;;;;;;5380227;26;20426;-79
2021/06/22 09:27:47;;;;;;;21.08;7.00;;;;;;;;;;5379452;26;20465;-79
2021/06/22 09:30:14;;;;;;;23.08;6.12;;;;;;;;;;5380101;26;20020;-77
2021/06/22 09:32:41;;;;;;;21.25;6.50;;;;;;;;;;5382593;26;20036;-77
2021/06/22 09:35:21;;;;;;;31.92;7.18;;;;;;;;;;5380104;26;20004;-80
2021/06/22 09:37:51;;;;;;;27.92;7.18;;;;;;;;;;5361945;26;20019;-79
2021/06/22 09:40:29;;;;;;;24.70;5.95;;;;;;;;;;5357849;26;20052;-76
2021/06/22 09:42:59;;;;;;;21.58;6.32;;;;;;;;;;5380485;26;20012;-78
2021/06/22 09:45:28;;;;;;;29.48;6.70;;;;;;;;;;5380410;26;20379;-78
2021/06/22 09:47:58;;;;;;;23.58;6.90;;;;;;;;;;5382539;26;20022;-79
2021/06/22 09:50:38;;;;;;;28.60;6.85;;;;;;;;;;5382690;26;20063;-77
2021/06/22 09:53:23;;;;;;;21.65;5.93;;;;;;;;;;5379120;26;20240;-78
2021/06/22 09:55:49;;;;;;;28.60;7.40;;;;;;;;;;5380339;26;20038;-79
2021/06/22 09:58:16;;;;;;;17.90;6.25;;;;;;;;;;5380755;26;20388;-78
2021/06/22 10:00:42;;;;;;;22.27;7.03;;;;;;;;;;5379746;26;20000;-78
2021/06/22 10:03:10;;;;;;;28.70;7.20;;;;;;;;;;5381177;26;20218;-77
2021/06/22 10:05:52;;;;;;;21.23;6.72;;;;;;;;;;5378302;26;20038;-80
2021/06/22 10:08:18;;;;;;;16.67;6.32;;;;;;;;;;5380969;26;20570;-78
2021/06/22 10:10:44;;;;;;;27.73;8.02;;;;;;;;;;5381021;26;20371;-79
2021/06/22 10:13:30;;;;;;;27.45;6.65;;;;;;;;;;5381173;26;20012;-79
2021/06/22 10:16:15;;;;;;;22.83;7.70;;;;;;;;;;5379707;26;20403;-80
2021/06/22 10:18:41;;;;;;;17.10;6.28;;;;;;;;;;5381079;26;20349;-79
2021/06/22 10:21:07;;;;;;;26.23;8.18;;;;;;;;;;5381491;26;20046;-78
2021/06/22 10:23:33;;;;;;;20.85;6.90;;;;;;;;;;5383080;26;20425;-80
2021/06/22 10:26:00;;;;;;;20.77;6.68;;;;;;;;;;5383886;26;20463;-77
2021/06/22 10:28:27;;;;;;;22.33;7.05;;;;;;;;;;5380123;26;20003;-77
2021/06/22 10:30:53;;;;;;;21.58;6.90;;;;;;;;;;5360864;26;20020;-78
2021/06/22 10:33:19;;;;;;;24.75;8.27;;;;;;;;;;5381294;26;20386;-78
2021/06/22 10:35:46;;;;;;;18.17;6.07;;;;;;;;;;5381868;26;20409;-79
2021/06/22 10:38:14;;;;;;;22.50;7.47;;;;;;;;;;5380529;26;20014;-78
2021/06/22 10:40:40;;;;;;;24.12;7.57;;;;;;;;;;5382982;26;20040;-79
2021/06/22 10:43:06;;;;;;;24.25;7.47;;;;;;;;;;5381822;26;20008;-80
2021/06/22 10:45:32;;;;;;;26.15;6.50;;;;;;;;;;5380981;26;20044;-78
2021/06/22 10:48:00;;;;;;;17.37;6.45;;;;;;;;;;5383013;26;20007;-80
2021/06/22 10:50:26;;;;;;;25.40;6.75;;;;;;;;;;5382084;26;19999;-79
2021/06/22 10:53:02;;;;;;;23.77;7.07;;;;;;;;;;5383318;26;20020;-78
2021/06/22 10:55:30;;;;;;;20.70;6.85;;;;;;;;;;5382266;26;19996;-80
2021/06/22 10:58:03;;;;;;;21.40;6.93;;;;;;;;;;5381266;26;20025;-78
2021/06/22 11:00:49;;;;;;;22.00;7.32;;;;;;;;;;5362671;26;20027;-78
2021/06/22 11:03:33;;;;;;;27.37;7.05;;;;;;;;;;5362723;26;20004;-79
2021/06/22 11:06:12;;;;;;;25.02;6.57;;;;;;;;;;5361637;26;20005;-78
2021/06/22 11:08:39;;;;;;;18.23;6.40;;;;;;;;;;5379841;26;20062;-78
2021/06/22 11:11:09;;;;;;;23.75;7.40;;;;;;;;;;5380980;26;20331;-79
2021/06/22 11:13:35;;;;;;;21.23;7.15;;;;;;;;;;5382783;26;20462;-80
2021/06/22 11:16:05;;;;;;;19.45;6.72;;;;;;;;;;5381204;26;20438;-78
2021/06/22 11:18:50;;;;;;;22.42;6.10;;;;;;;;;;5383270;26;20039;-80
2021/06/22 11:21:17;;;;;;;18.87;6.53;;;;;;;;;;5382904;26;20070;-77
2021/06/22 11:23:55;;;;;;;23.08;6.18;;;;;;;;;;5360231;26;20012;-81
2021/06/22 11:26:22;;;;;;;21.27;6.53;;;;;;;;;;5381721;26;20355;-78
2021/06/22 11:28:57;;;;;;;20.77;6.05;;;;;;;;;;5360692;26;20007;-79
2021/06/22 11:31:33;;;;;;;25.23;6.68;;;;;;;;;;5360707;26;20012;-77
2021/06/22 11:34:07;;;;;;;21.92;6.05;;;;;;;;;;5380141;26;20062;-78
2021/06/22 11:36:34;;;;;;;23.80;6.62;;;;;;;;;;5383210;26;20012;-76
2021/06/22 11:39:09;;;;;;;19.17;6.93;;;;;;;;;;5381049;26;20015;-79
2021/06/22 11:41:36;;;;;;;21.85;6.87;;;;;;;;;;5380495;26;20025;-79
2021/06/22 11:44:08;;;;;;;23.27;6.60;;;;;;;;;;5381081;26;20007;-78
2021/06/22 11:46:35;;;;;;;22.37;6.30;;;;;;;;;;5381275;26;20177;-77
2021/06/22 11:49:02;;;;;;;15.82;5.47;;;;;;;;;;5380888;26;20039;-78
2021/06/22 11:51:47;;;;;;;27.90;7.10;;;;;;;;;;5378700;26;20012;-82
2021/06/22 11:54:17;;;;;;;28.05;7.68;;;;;;;;;;5359411;26;20414;-79
2021/06/22 11:56:49;;;;;;;26.52;6.62;;;;;;;;;;5379582;26;20081;-78
2021/06/22 11:59:16;;;;;;;20.35;6.50;;;;;;;;;;5380461;26;20213;-78
2021/06/22 12:01:48;;;;;;;25.75;7.03;;;;;;;;;;5359345;26;20058;-80
2021/06/22 12:04:14;;;;;;;31.17;6.15;;;;;;;;;;5379850;26;20007;-81
2021/06/22 12:06:41;;;;;;;27.65;7.18;;;;;;;;;;5380153;26;20776;-79
2021/06/22 12:09:17;;;;;;;23.27;6.90;;;;;;;;;;5380824;26;20023;-79
2021/06/22 12:11:45;;;;;;;22.73;6.43;;;;;;;;;;5379368;26;20022;-78
2021/06/22 12:14:19;;;;;;;23.05;6.78;;;;;;;;;;5360186;26;20046;-84
2021/06/22 12:16:48;;;;;;;21.58;5.85;;;;;;;;;;5380445;26;20081;-84
2021/06/22 12:19:16;;;;;;;20.65;6.28;;;;;;;;;;5380316;26;20006;-83
2021/06/22 12:21:46;;;;;;;22.80;6.55;;;;;;;;;;5379910;26;20345;-80
2021/06/22 12:24:14;;;;;;;18.65;6.20;;;;;;;;;;5378955;26;20041;-82
2021/06/22 12:26:41;;;;;;;27.98;7.45;;;;;;;;;;5380087;26;20417;-82
2021/06/22 12:29:24;;;;;;;24.05;6.05;;;;;;;;;;5379600;26;20080;-79
2021/06/22 12:31:57;;;;;;;22.48;6.32;;;;;;;;;;5380157;26;20028;-78
2021/06/22 12:34:24;;;;;;;24.20;6.87;;;;;;;;;;5379041;26;20417;-78
2021/06/22 12:36:50;;;;;;;22.83;7.00;;;;;;;;;;5379514;26;20000;-80
2021/06/22 12:39:17;;;;;;;24.40;7.28;;;;;;;;;;5360293;26;20026;-80
2021/06/22 12:41:43;;;;;;;18.77;6.47;;;;;;;;;;5379916;26;20044;-80
2021/06/22 12:44:25;;;;;;;21.85;6.03;;;;;;;;;;5378764;26;20018;-79
2021/06/22 12:46:51;;;;;;;22.87;6.85;;;;;;;;;;5359384;26;20050;-81
2021/06/22 12:49:25;;;;;;;18.65;6.15;;;;;;;;;;5379761;26;20063;-78
2021/06/22 12:51:56;;;;;;;21.77;6.40;;;;;;;;;;5380258;26;20440;-79
2021/06/22 12:54:25;;;;;;;20.37;5.93;;;;;;;;;;5378055;26;20463;-81
2021/06/22 12:56:56;;;;;;;26.27;6.97;;;;;;;;;;5380575;26;20027;-82
2021/06/22 12:59:23;;;;;;;23.75;6.95;;;;;;;;;;5360036;26;20008;-80
2021/06/22 13:01:52;;;;;;;18.17;5.55;;;;;;;;;;5380468;26;20087;-79
2021/06/22 13:04:19;;;;;;;22.92;5.82;;;;;;;;;;5380524;26;20000;-80
2021/06/22 13:06:47;;;;;;;19.00;5.85;;;;;;;;;;5378112;26;20011;-80
2021/06/22 13:09:17;;;;;;;23.77;6.93;;;;;;;;;;5360112;26;20023;-79
2021/06/22 13:11:54;;;;;;;16.48;5.35;;;;;;;;;;5380106;26;20204;-80
2021/06/22 13:14:25;;;;;;;22.30;6.53;;;;;;;;;;5358346;26;20039;-78
2021/06/22 13:16:56;;;;;;;16.67;5.57;;;;;;;;;;5379675;26;20050;-79
2021/06/22 13:19:22;;;;;;;24.75;6.85;;;;;;;;;;5379255;26;20498;-78
2021/06/22 13:21:50;;;;;;;22.75;6.87;;;;;;;;;;5358202;26;20015;-80
2021/06/22 13:24:34;;;;;;;18.45;5.90;;;;;;;;;;5380726;26;20351;-81
2021/06/22 13:27:01;;;;;;;21.45;6.80;;;;;;;;;;5359320;26;19999;-80
2021/06/22 13:29:28;;;;;;;25.98;5.87;;;;;;;;;;5380331;26;20004;-79
2021/06/22 13:31:54;;;;;;;27.37;7.10;;;;;;;;;;5360304;26;20331;-82
2021/06/22 13:34:28;;;;;;;20.30;6.68;;;;;;;;;;5378356;26;20331;-79
2021/06/22 13:36:54;;;;;;;24.17;7.15;;;;;;;;;;5379974;26;20003;-79
2021/06/22 13:39:21;;;;;;;26.40;7.00;;;;;;;;;;5358855;26;20036;-81
2021/06/22 13:41:51;;;;;;;18.70;6.05;;;;;;;;;;5359378;26;20030;-80
2021/06/22 13:44:37;;;;;;;25.05;7.12;;;;;;;;;;5378993;26;20369;-77
2021/06/22 13:47:04;;;;;;;26.12;7.25;;;;;;;;;;5379625;26;20003;-81
2021/06/22 13:49:40;;;;;;;25.48;7.45;;;;;;;;;;5379082;26;20047;-78
2021/06/22 13:52:06;;;;;;;27.48;7.62;;;;;;;;;;5358905;26;20418;-78
2021/06/22 13:54:33;;;;;;;25.62;6.30;;;;;;;;;;5358505;26;20008;-77
2021/06/22 13:57:03;;;;;;;22.17;6.82;;;;;;;;;;5359495;26;20004;-77
2021/06/22 13:59:30;;;;;;;24.77;6.40;;;;;;;;;;5380758;26;20707;-77
2021/06/22 14:01:56;;;;;;;32.40;7.35;;;;;;;;;;5361106;26;20027;-80
2021/06/22 14:04:22;;;;;;;24.80;7.37;;;;;;;;;;5379771;26;20007;-80
2021/06/22 14:06:49;;;;;;;24.15;7.18;;;;;;;;;;5360596;26;19999;-82
2021/06/22 14:09:15;;;;;;;23.55;7.65;;;;;;;;;;5381365;26;20003;-81
2021/06/22 14:11:41;;;;;;;26.87;7.50;;;;;;;;;;5381009;26;20062;-77
2021/06/22 14:14:08;;;;;;;20.23;6.25;;;;;;;;;;5359130;26;20012;-78
2021/06/22 14:16:36;;;;;;;27.42;7.45;;;;;;;;;;5360381;26;20200;-79
2021/06/22 14:19:03;;;;;;;19.98;6.10;;;;;;;;;;5380634;26;20000;-78
2021/06/22 14:21:31;;;;;;;17.08;6.53;;;;;;;;;;5361744;26;20019;-80
2021/06/22 14:24:35;;;;;;;26.00;6.78;;;;;;;;;;5361165;26;20498;-79
2021/06/22 14:27:09;;;;;;;24.00;6.87;;;;;;;;;;5360112;26;20047;-79
2021/06/22 14:29:46;;;;;;;26.77;7.03;;;;;;;;;;5358970;26;20003;-79
2021/06/22 14:32:15;;;;;;;22.05;6.37;;;;;;;;;;5360708;26;20000;-80
2021/06/22 14:34:58;;;;;;;31.20;7.72;;;;;;;;;;5361395;26;20064;-79
2021/06/22 14:37:29;;;;;;;25.30;6.62;;;;;;;;;;5359936;26;20013;-78